Observations for BENSON RAF, United Kingdom (EGUB)

EGUB 201650Z 26011KT 9999 FEW016 SCT018 BKN030 19/15 Q1019 WHT BECMG SCT025 BLU 
EGUB 201540Z 27011KT 9999 -DZ BKN022 BKN035 21/16 Q1019 WHT TEMPO SCT025 BLU
EGUB 201540Z 27011KT 9999 -DZ BKN022 BKN035 21/16 Q1019 WHT TEMPO SCT025 BLU
EGUB 201450Z 24011KT 9999 SCT026 BKN044 22/16 Q1019 BLU TEMPO SCT020 WHT
EGUB 201350Z 27011KT 9999 BKN027 BKN035 22/15 Q1019 BLU TEMPO BKN024 WHT
EGUB 201250Z 24010KT 9999 BKN028 BKN035 22/15 Q1019 BLU NOSIG   
EGUB 201150Z 24010KT 9999 BKN025 22/15 Q1019 BLU NOSIG  
EGUB 201050Z 21010KT 9999 BKN021 21/16 Q1020 WHT BECMG SCT025 BLU   
EGUB 200950Z 20010KT 9999 BKN020 20/15 Q1020 WHT BECMG SCT025 BLU   
EGUB 200850Z 18009KT 9999 BKN015 19/15 Q1020 WHT NOSIG  
EGUB 200750Z 19010KT 9999 BKN010 17/15 Q1020 GRN BECMG SCT018 WHT   
EGUB 200638Z 21009KT 9999 OVC007 16/15 Q1020 GRN NOSIG  
EGUB 200638Z 21009KT 9999 OVC007 16/15 Q1020 GRN NOSIG
EGUB 200550Z 19007KT 9999 -DZ BKN006 OVC008 16/15 Q1020 YLO1 BECMG BKN008 GRN   
EGUB 200450Z AUTO 19006KT 8000 // BKN002/// BKN019/// 15/15 Q1020   
EGUB 200350Z AUTO 20006KT 5000 // OVC001/// 15/15 Q1020 
EGUB 200250Z AUTO 19010KT 4200 // SCT002/// 15/15 Q1020 
EGUB 200150Z AUTO 17006KT 9999 // FEW015/// SCT023/// 15/15 Q1021   
EGUB 200050Z AUTO 20003KT 9999 // BKN015/// 17/16 Q1021 
EGUB 192350Z AUTO 21005KT 9999 // SCT016/// 16/15 Q1022 
EGUB 192250Z AUTO 25003KT 9999 // FEW021/// BKN033/// 18/16 Q1022   
EGUB 192150Z AUTO 24003KT 9999 // FEW020/// SCT028/// BKN041/// 18/16 Q1022 
EGUB 192050Z AUTO 25003KT 9999 // FEW027/// BKN045/// 19/16 Q1022   
EGUB 191950Z AUTO 27005KT 9999 // FEW028/// BKN042/// 20/16 Q1022   
EGUB 191850Z 27007KT 9999 FEW024 BKN030 22/16 Q1021 BLU NOSIG   
EGUB 191750Z 23009KT 9999 FEW024 BKN030 22/16 Q1022 BLU NOSIG   
EGUB 191650Z 22010KT 9999 BKN028 23/16 Q1022 BLU NOSIG  
EGUB 191550Z 21011KT 9999 FEW027 BKN045 23/16 Q1022 BLU NOSIG